Time;durP1;ratioP1;P1;durP2;ratioP2;P2;SDS_P1;SDS_P2;PMS_P1;PMS_P2;Temp;Humidity;BMP_temperature;BMP_pressure;BME280_temperature;BME280_humidity;BME280_pressure;Samples;Min_cycle;Max_cycle;Signal;HPM_P1;HPM_P2
2023/07/30 00:01:15;;;;;;;5.75;1.58;;;17.10;99.90;;;;;;5051564;28;20060;-35
2023/07/30 00:03:41;;;;;;;9.23;2.10;;;17.10;99.90;;;;;;5052440;28;20096;-50
2023/07/30 00:06:06;;;;;;;2.33;1.45;;;17.10;99.90;;;;;;5040291;28;20033;-51
2023/07/30 00:08:32;;;;;;;8.27;1.55;;;17.10;99.90;;;;;;5052025;28;20537;-50
2023/07/30 00:10:58;;;;;;;8.77;1.70;;;17.10;99.90;;;;;;5052567;28;20033;-52
2023/07/30 00:13:24;;;;;;;5.63;1.48;;;17.00;99.90;;;;;;5052789;28;20099;-53
2023/07/30 00:15:50;;;;;;;2.13;1.17;;;17.00;99.90;;;;;;5051740;28;20028;-51
2023/07/30 00:18:16;;;;;;;9.45;1.38;;;17.00;99.90;;;;;;5051488;28;20029;-53
2023/07/30 00:20:42;;;;;;;2.65;1.25;;;17.00;99.90;;;;;;5052252;28;20029;-48
2023/07/30 00:23:08;;;;;;;2.95;1.20;;;16.90;99.90;;;;;;5052156;28;20500;-52
2023/07/30 00:25:34;;;;;;;4.07;2.05;;;16.90;99.90;;;;;;5052390;28;20029;-53
2023/07/30 00:28:00;;;;;;;9.15;1.67;;;16.90;99.90;;;;;;5052406;28;20163;-52
2023/07/30 00:30:25;;;;;;;6.20;1.30;;;16.90;99.90;;;;;;5051830;28;20044;-50
2023/07/30 00:32:51;;;;;;;3.08;1.08;;;16.90;99.90;;;;;;5051517;28;20021;-50
2023/07/30 00:35:17;;;;;;;4.60;1.27;;;16.80;99.90;;;;;;5051457;28;20424;-51
2023/07/30 00:37:43;;;;;;;8.32;1.35;;;16.80;99.90;;;;;;5051834;28;20075;-51
2023/07/30 00:40:09;;;;;;;6.28;1.95;;;16.80;99.90;;;;;;5053081;28;20021;-50
2023/07/30 00:42:34;;;;;;;1.50;1.25;;;16.90;99.90;;;;;;5056205;28;20367;-52
2023/07/30 00:45:00;;;;;;;8.00;1.27;;;16.80;99.90;;;;;;5037458;28;20033;-52
2023/07/30 00:47:26;;;;;;;9.10;1.95;;;16.80;99.90;;;;;;5036455;28;20025;-51
2023/07/30 00:49:52;;;;;;;5.53;2.25;;;16.80;99.90;;;;;;5041772;28;20131;-50
2023/07/30 00:52:20;;;;;;;6.28;1.52;;;16.70;99.90;;;;;;5055054;28;20033;-52
2023/07/30 00:54:48;;;;;;;6.10;1.05;;;16.70;99.90;;;;;;5055956;28;20071;-52
2023/07/30 00:57:15;;;;;;;2.78;1.23;;;16.70;99.90;;;;;;5055859;28;20048;-52
2023/07/30 00:59:41;;;;;;;6.07;1.77;;;16.70;99.90;;;;;;5055595;28;20076;-48
2023/07/30 01:02:07;;;;;;;8.55;2.45;;;16.70;99.90;;;;;;5055592;28;20067;-48
2023/07/30 01:04:32;;;;;;;2.90;1.23;;;16.70;99.90;;;;;;5055035;28;20053;-50
2023/07/30 01:06:58;;;;;;;3.35;1.50;;;16.70;99.90;;;;;;5054256;28;20029;-53
2023/07/30 01:09:24;;;;;;;6.78;1.75;;;16.70;99.90;;;;;;5050404;28;20071;-49
2023/07/30 01:11:53;;;;;;;5.88;1.55;;;16.70;99.90;;;;;;5035719;28;20013;-52
2023/07/30 01:14:21;;;;;;;6.60;1.40;;;16.70;99.90;;;;;;5035751;28;20018;-53
2023/07/30 01:16:46;;;;;;;5.30;1.25;;;16.70;99.90;;;;;;5035628;28;20021;-50
2023/07/30 01:19:12;;;;;;;9.68;2.35;;;16.70;99.90;;;;;;5035551;28;20021;-53
2023/07/30 01:21:38;;;;;;;7.47;1.70;;;16.70;99.90;;;;;;5034218;28;20048;-52
2023/07/30 01:24:04;;;;;;;15.57;2.25;;;16.70;99.90;;;;;;5042951;28;20056;-52
2023/07/30 01:26:41;;;;;;;12.70;2.13;;;16.70;99.90;;;;;;5054406;28;20067;-53
2023/07/30 01:29:35;;;;;;;7.15;2.00;;;16.70;99.90;;;;;;5055310;28;20078;-52
2023/07/30 01:32:06;;;;;;;5.75;1.23;;;16.80;99.90;;;;;;5049220;28;20183;-51
2023/07/30 01:34:35;;;;;;;10.60;2.00;;;16.80;99.90;;;;;;5047613;28;20013;-48
2023/07/30 01:37:01;;;;;;;3.75;2.22;;;16.80;99.90;;;;;;5049484;28;20053;-53
2023/07/30 01:39:28;;;;;;;16.73;2.50;;;16.80;99.90;;;;;;5050940;28;20108;-51
2023/07/30 01:41:54;;;;;;;10.57;2.03;;;16.80;99.90;;;;;;5049806;28;20033;-49
2023/07/30 01:44:20;;;;;;;14.40;2.75;;;16.80;99.90;;;;;;5049532;28;20421;-53
2023/07/30 01:46:46;;;;;;;4.97;1.70;;;16.70;99.90;;;;;;5051654;28;20074;-51
2023/07/30 01:49:12;;;;;;;13.68;2.28;;;16.80;99.90;;;;;;5052982;28;20549;-53
2023/07/30 01:51:37;;;;;;;10.98;1.95;;;16.80;99.90;;;;;;5041109;28;20572;-49
2023/07/30 01:54:03;;;;;;;4.78;1.35;;;16.80;99.90;;;;;;5054684;28;20025;-49
2023/07/30 01:56:29;;;;;;;6.72;1.70;;;16.80;99.90;;;;;;5047764;28;20442;-50
2023/07/30 01:58:55;;;;;;;8.27;1.70;;;16.80;99.90;;;;;;5049145;28;20032;-53
2023/07/30 02:01:21;;;;;;;5.97;1.85;;;16.80;99.90;;;;;;5053686;28;20032;-52
2023/07/30 02:03:46;;;;;;;8.57;1.85;;;16.80;99.90;;;;;;5054557;28;20370;-50
2023/07/30 02:06:12;;;;;;;6.43;2.58;;;16.80;99.90;;;;;;5054523;28;20032;-52
2023/07/30 02:08:38;;;;;;;11.82;2.25;;;16.80;99.90;;;;;;5054508;28;20028;-52
2023/07/30 02:11:03;;;;;;;7.97;2.08;;;16.80;99.90;;;;;;5054572;28;20548;-53
2023/07/30 02:13:29;;;;;;;8.40;1.63;;;16.80;99.90;;;;;;5054847;28;20013;-52
2023/07/30 02:15:55;;;;;;;15.05;2.42;;;16.80;99.90;;;;;;5053953;28;20024;-51
2023/07/30 02:18:21;;;;;;;9.15;2.03;;;16.70;99.90;;;;;;5053581;28;20017;-52
2023/07/30 02:20:46;;;;;;;12.50;2.33;;;16.70;99.90;;;;;;5054509;28;20116;-53
2023/07/30 02:23:14;;;;;;;7.32;2.20;;;16.70;99.90;;;;;;5054269;28;20509;-51
2023/07/30 02:25:39;;;;;;;6.97;1.65;;;16.70;99.90;;;;;;5054260;28;20631;-51
2023/07/30 02:28:05;;;;;;;14.18;2.38;;;16.70;99.90;;;;;;5054228;28;20029;-36
2023/07/30 02:30:32;;;;;;;8.80;2.17;;;16.70;99.90;;;;;;5054384;28;20541;-35
2023/07/30 02:32:58;;;;;;;7.75;1.73;;;16.80;99.90;;;;;;5051010;28;20075;-36
2023/07/30 02:35:24;;;;;;;6.68;1.92;;;16.80;99.90;;;;;;5053361;28;20024;-36
2023/07/30 02:37:49;;;;;;;13.20;2.13;;;16.70;99.90;;;;;;5052621;28;20477;-51
2023/07/30 02:40:15;;;;;;;3.03;1.48;;;16.70;99.90;;;;;;5054128;28;20025;-51
2023/07/30 02:42:41;;;;;;;11.73;1.98;;;16.70;99.90;;;;;;5054150;28;20028;-51
2023/07/30 02:45:07;;;;;;;10.05;2.00;;;16.70;99.90;;;;;;5053885;28;20025;-52
2023/07/30 02:47:32;;;;;;;10.07;1.90;;;16.70;99.90;;;;;;5053868;28;20032;-52
2023/07/30 02:49:58;;;;;;;8.60;1.95;;;16.70;99.90;;;;;;5053042;28;20456;-53
2023/07/30 02:52:23;;;;;;;6.30;2.05;;;16.60;99.90;;;;;;5047498;28;20029;-49
2023/07/30 02:54:49;;;;;;;16.42;2.88;;;16.60;99.90;;;;;;5046070;28;20149;-53
2023/07/30 02:57:15;;;;;;;12.30;2.30;;;16.60;99.90;;;;;;5051590;28;20491;-53
2023/07/30 02:59:40;;;;;;;10.57;1.90;;;16.60;99.90;;;;;;5051658;28;20025;-52
2023/07/30 03:02:06;;;;;;;13.18;3.20;;;16.60;99.90;;;;;;5033717;28;20386;-52
2023/07/30 03:04:32;;;;;;;16.40;3.10;;;16.50;99.90;;;;;;5033139;28;20385;-52
2023/07/30 03:06:58;;;;;;;15.82;2.33;;;16.50;99.90;;;;;;5034208;28;20040;-50
2023/07/30 03:09:24;;;;;;;14.45;2.10;;;16.50;99.90;;;;;;5045446;28;20032;-53
2023/07/30 03:11:50;;;;;;;17.77;3.17;;;16.50;99.90;;;;;;5065473;28;20032;-48
2023/07/30 03:14:16;;;;;;;15.43;3.15;;;16.40;99.90;;;;;;5053421;28;20017;-52
2023/07/30 03:16:41;;;;;;;14.50;2.45;;;16.40;99.90;;;;;;5046212;28;20021;-52
2023/07/30 03:19:07;;;;;;;11.70;2.33;;;16.40;99.90;;;;;;5063379;28;20032;-50
2023/07/30 03:21:33;;;;;;;11.55;2.55;;;16.40;99.90;;;;;;5073200;28;20068;-52
2023/07/30 03:23:58;;;;;;;12.00;2.88;;;16.40;99.90;;;;;;5070198;28;20447;-53
2023/07/30 03:26:24;;;;;;;10.82;2.72;;;16.40;99.90;;;;;;5049132;28;20513;-53
2023/07/30 03:28:50;;;;;;;9.27;2.97;;;16.40;99.90;;;;;;5047253;28;20029;-55
2023/07/30 03:31:15;;;;;;;16.67;3.20;;;16.30;99.90;;;;;;5048861;28;20386;-52
2023/07/30 03:33:45;;;;;;;6.80;2.63;;;16.40;99.90;;;;;;5052835;28;20025;-36
2023/07/30 03:36:13;;;;;;;16.42;2.72;;;16.40;99.90;;;;;;5042362;28;20393;-35
2023/07/30 03:38:39;;;;;;;10.88;2.33;;;16.30;99.90;;;;;;5050858;28;20056;-35
2023/07/30 03:41:08;;;;;;;10.98;2.75;;;16.30;99.90;;;;;;5062971;28;20474;-36
2023/07/30 03:43:34;;;;;;;8.00;2.05;;;16.30;99.90;;;;;;5042679;28;20025;-35
2023/07/30 03:46:00;;;;;;;8.65;2.55;;;16.30;99.90;;;;;;5041538;28;20037;-39
2023/07/30 03:48:26;;;;;;;17.45;2.60;;;16.40;99.90;;;;;;5071066;28;20469;-35
2023/07/30 03:50:53;;;;;;;23.88;3.80;;;16.40;99.90;;;;;;5056916;28;20087;-35
2023/07/30 03:53:19;;;;;;;12.13;2.67;;;16.30;99.90;;;;;;5040304;28;20033;-36
2023/07/30 03:55:44;;;;;;;16.92;3.75;;;16.30;99.90;;;;;;5058513;28;20547;-35
2023/07/30 03:58:10;;;;;;;9.80;2.70;;;16.30;99.90;;;;;;5072734;28;20090;-35
2023/07/30 04:00:36;;;;;;;20.42;3.40;;;16.30;99.90;;;;;;5041473;28;20087;-35
2023/07/30 04:03:01;;;;;;;15.35;3.20;;;16.30;99.90;;;;;;5035822;28;20043;-36
2023/07/30 04:05:27;;;;;;;9.18;2.40;;;16.30;99.90;;;;;;5056363;28;20058;-36
2023/07/30 04:07:53;;;;;;;18.48;3.55;;;16.30;99.90;;;;;;5063472;28;20029;-35
2023/07/30 04:10:18;;;;;;;5.63;2.17;;;16.30;99.90;;;;;;5053089;28;20677;-35
2023/07/30 04:12:44;;;;;;;17.13;2.75;;;16.30;99.90;;;;;;5072572;28;20036;-35
2023/07/30 04:15:10;;;;;;;23.00;3.63;;;16.40;99.90;;;;;;5074241;28;20499;-51
2023/07/30 04:17:37;;;;;;;12.70;2.65;;;16.40;99.90;;;;;;5045660;28;20053;-50
2023/07/30 04:20:04;;;;;;;15.27;2.75;;;16.40;99.90;;;;;;5054256;28;20523;-52
2023/07/30 04:22:30;;;;;;;22.43;4.70;;;16.40;99.90;;;;;;5056546;28;20037;-53
2023/07/30 04:24:55;;;;;;;13.73;3.55;;;16.40;99.90;;;;;;5057757;28;20033;-48
2023/07/30 04:27:21;;;;;;;9.80;2.75;;;16.40;99.90;;;;;;5074046;28;20500;-52
2023/07/30 04:29:46;;;;;;;20.17;3.00;;;16.50;99.90;;;;;;5073962;28;20354;-51
2023/07/30 04:32:12;;;;;;;28.67;4.53;;;16.50;99.90;;;;;;5074150;28;20548;-51
2023/07/30 04:34:38;;;;;;;17.73;2.97;;;16.50;99.90;;;;;;5056652;28;20021;-50
2023/07/30 04:37:04;;;;;;;14.57;3.72;;;16.50;99.90;;;;;;5056159;28;20057;-49
2023/07/30 04:39:31;;;;;;;16.70;2.83;;;16.50;99.90;;;;;;5056242;28;20060;-48
2023/07/30 04:41:57;;;;;;;26.35;4.20;;;16.60;99.90;;;;;;5072547;28;20028;-53
2023/07/30 04:44:23;;;;;;;13.90;2.75;;;16.60;99.90;;;;;;5076164;28;20473;-49
2023/07/30 04:46:48;;;;;;;13.70;3.88;;;16.60;99.90;;;;;;5076095;28;20532;-50
2023/07/30 04:49:14;;;;;;;16.88;3.17;;;16.60;99.90;;;;;;5066287;28;20111;-52
2023/07/30 04:51:40;;;;;;;12.52;3.83;;;16.60;99.90;;;;;;5048925;28;20116;-53
2023/07/30 04:54:05;;;;;;;17.83;3.72;;;16.70;99.90;;;;;;5055053;28;20439;-50
2023/07/30 04:56:31;;;;;;;19.70;3.63;;;16.60;99.90;;;;;;5051027;28;20108;-51
2023/07/30 04:58:57;;;;;;;18.70;3.67;;;16.70;99.90;;;;;;5053601;28;20060;-53
2023/07/30 05:01:24;;;;;;;14.63;3.97;;;16.70;99.90;;;;;;5053930;28;20462;-53
2023/07/30 05:03:50;;;;;;;10.48;3.25;;;16.80;99.90;;;;;;5055808;28;20028;-52
2023/07/30 05:06:15;;;;;;;24.52;3.97;;;16.80;99.90;;;;;;5058611;28;20112;-53
2023/07/30 05:08:41;;;;;;;26.38;5.65;;;16.80;99.90;;;;;;5048736;28;20498;-51
2023/07/30 05:11:07;;;;;;;13.70;2.47;;;16.80;99.90;;;;;;5052160;28;20029;-51
2023/07/30 05:13:32;;;;;;;19.52;4.15;;;16.90;99.90;;;;;;5054276;28;20025;-53
2023/07/30 05:15:58;;;;;;;23.50;4.38;;;16.90;99.90;;;;;;5052743;28;20054;-53
2023/07/30 05:18:24;;;;;;;21.30;5.00;;;16.90;99.90;;;;;;5054016;28;20029;-49
2023/07/30 05:20:49;;;;;;;17.13;3.40;;;16.90;99.90;;;;;;5052371;28;20017;-50
2023/07/30 05:23:15;;;;;;;11.85;3.58;;;16.90;99.90;;;;;;5052733;28;20040;-48
2023/07/30 05:25:41;;;;;;;6.38;3.00;;;16.90;99.90;;;;;;5048906;28;20022;-52
2023/07/30 05:28:06;;;;;;;16.85;4.00;;;17.00;99.90;;;;;;5051946;28;20079;-52
2023/07/30 05:30:32;;;;;;;15.73;3.42;;;17.00;99.90;;;;;;5052703;28;20032;-52
2023/07/30 05:32:58;;;;;;;17.27;3.40;;;17.10;99.90;;;;;;5054104;28;20017;-52
2023/07/30 05:35:23;;;;;;;22.27;4.10;;;17.10;99.90;;;;;;5050807;28;20443;-53
2023/07/30 05:37:49;;;;;;;13.82;3.20;;;17.10;99.90;;;;;;5050574;28;20109;-51
2023/07/30 05:40:14;;;;;;;17.27;3.38;;;17.20;99.90;;;;;;5052172;28;20029;-52
2023/07/30 05:42:40;;;;;;;14.25;4.03;;;17.20;99.90;;;;;;5053604;28;20040;-52
2023/07/30 05:45:06;;;;;;;20.52;4.60;;;17.20;99.90;;;;;;5050138;28;20033;-45
2023/07/30 05:47:32;;;;;;;24.52;3.78;;;17.30;99.90;;;;;;5050827;28;20485;-44
2023/07/30 05:49:58;;;;;;;28.38;4.72;;;17.30;99.90;;;;;;5047538;28;20057;-52
2023/07/30 05:52:24;;;;;;;14.35;3.17;;;17.40;99.90;;;;;;5047758;28;20025;-52
2023/07/30 05:54:49;;;;;;;16.58;4.53;;;17.40;99.90;;;;;;5054828;28;20491;-51
2023/07/30 05:57:15;;;;;;;15.65;3.78;;;17.40;99.90;;;;;;5052956;28;20034;-50
2023/07/30 05:59:40;;;;;;;18.98;4.55;;;17.40;99.90;;;;;;5053809;28;20108;-50
2023/07/30 06:02:07;;;;;;;17.02;4.45;;;17.40;99.90;;;;;;5054653;28;20429;-51
2023/07/30 06:04:32;;;;;;;22.20;4.07;;;17.50;99.90;;;;;;5053795;28;20355;-50
2023/07/30 06:07:00;;;;;;;14.63;4.32;;;17.50;99.90;;;;;;5053480;28;20040;-53
2023/07/30 06:09:26;;;;;;;21.85;4.90;;;17.60;99.90;;;;;;5054436;28;20037;-53
2023/07/30 06:11:52;;;;;;;17.20;4.35;;;17.60;99.90;;;;;;5057442;28;20032;-52
2023/07/30 06:14:17;;;;;;;15.90;3.58;;;17.60;99.90;;;;;;5052974;28;20032;-52
2023/07/30 06:16:44;;;;;;;25.42;5.60;;;17.70;99.90;;;;;;5042187;28;20381;-35
2023/07/30 06:19:09;;;;;;;19.48;4.15;;;17.70;99.90;;;;;;5054466;28;20076;-37
2023/07/30 06:21:35;;;;;;;17.40;4.15;;;17.70;99.90;;;;;;5054076;28;20560;-36
2023/07/30 06:24:01;;;;;;;18.42;4.35;;;17.70;99.90;;;;;;5053893;28;20033;-45
2023/07/30 06:26:26;;;;;;;19.58;4.43;;;17.70;99.90;;;;;;5054198;28;20017;-35
2023/07/30 06:28:52;;;;;;;12.73;3.42;;;17.80;99.90;;;;;;5053983;28;20029;-35
2023/07/30 06:31:18;;;;;;;10.75;3.45;;;17.80;99.90;;;;;;5053206;28;20037;-36
2023/07/30 06:33:43;;;;;;;16.10;3.53;;;17.80;99.90;;;;;;5053366;28;20021;-36
2023/07/30 06:36:09;;;;;;;12.63;3.95;;;17.90;99.90;;;;;;5053973;28;20023;-35
2023/07/30 06:38:34;;;;;;;18.08;3.20;;;18.00;99.90;;;;;;5053003;28;20083;-35
2023/07/30 06:41:00;;;;;;;12.00;3.22;;;18.00;99.90;;;;;;5054021;28;20424;-35
2023/07/30 06:43:26;;;;;;;9.55;3.33;;;18.00;99.90;;;;;;5052494;28;20025;-35
2023/07/30 06:45:53;;;;;;;16.25;3.22;;;18.00;99.90;;;;;;5046115;28;20497;-35
2023/07/30 06:48:18;;;;;;;8.70;2.73;;;18.00;99.90;;;;;;5039214;28;20433;-35
2023/07/30 06:50:44;;;;;;;14.95;3.10;;;18.00;99.90;;;;;;5049238;28;20037;-36
2023/07/30 06:53:09;;;;;;;16.65;3.80;;;17.90;99.90;;;;;;5045845;28;20049;-35
2023/07/30 06:55:35;;;;;;;11.88;3.10;;;17.90;99.90;;;;;;5033784;28;20432;-35
2023/07/30 06:58:00;;;;;;;13.75;2.53;;;17.90;99.90;;;;;;5033609;28;20025;-35
2023/07/30 07:00:26;;;;;;;15.10;2.78;;;17.90;99.90;;;;;;5034035;28;20018;-35
2023/07/30 07:02:52;;;;;;;19.15;2.83;;;17.90;99.90;;;;;;5033689;28;20032;-35
2023/07/30 07:05:17;;;;;;;15.32;3.20;;;18.00;99.90;;;;;;5051440;28;20033;-35
2023/07/30 07:07:43;;;;;;;12.98;2.60;;;18.00;99.90;;;;;;5052463;28;20377;-37
2023/07/30 07:10:10;;;;;;;14.90;2.60;;;18.00;99.90;;;;;;5048256;28;20072;-35
2023/07/30 07:12:38;;;;;;;19.88;3.00;;;18.10;99.90;;;;;;5053419;28;20394;-35
2023/07/30 07:15:04;;;;;;;11.45;2.25;;;18.10;99.90;;;;;;5053640;28;20036;-35
2023/07/30 07:17:30;;;;;;;18.42;2.40;;;18.20;99.90;;;;;;5053578;28;20025;-35
2023/07/30 07:19:56;;;;;;;18.13;2.80;;;18.30;99.90;;;;;;5053279;28;20036;-35
2023/07/30 07:22:22;;;;;;;13.13;2.45;;;18.50;99.90;;;;;;5052091;28;20021;-36
2023/07/30 07:24:48;;;;;;;14.13;2.28;;;18.60;99.90;;;;;;5052083;28;20555;-34
2023/07/30 07:27:13;;;;;;;11.02;2.63;;;18.60;99.90;;;;;;5053575;28;20036;-35
2023/07/30 07:29:39;;;;;;;13.02;3.22;;;18.60;99.90;;;;;;5053252;28;20366;-36
2023/07/30 07:32:05;;;;;;;27.08;3.33;;;18.60;99.90;;;;;;5052829;28;20021;-35
2023/07/30 07:34:31;;;;;;;15.00;2.38;;;18.60;99.90;;;;;;5048774;28;20424;-35
2023/07/30 07:36:57;;;;;;;13.73;3.47;;;18.60;99.90;;;;;;5047929;28;20104;-36
2023/07/30 07:39:22;;;;;;;13.68;2.17;;;18.70;99.90;;;;;;5050072;28;20486;-34
2023/07/30 07:41:48;;;;;;;12.20;2.53;;;18.90;99.90;;;;;;5035876;28;20482;-33
2023/07/30 07:44:13;;;;;;;12.23;2.22;;;19.00;99.90;;;;;;5039901;28;20018;-40
2023/07/30 07:46:39;;;;;;;14.68;3.20;;;19.00;99.90;;;;;;5052703;28;20114;-35
2023/07/30 07:49:05;;;;;;;20.58;4.05;;;19.00;99.90;;;;;;5052331;28;20025;-36
2023/07/30 07:51:30;;;;;;;16.27;2.60;;;19.00;99.90;;;;;;5051886;28;20029;-36
2023/07/30 07:53:56;;;;;;;15.55;3.22;;;18.90;99.90;;;;;;5049135;28;20116;-35
2023/07/30 07:56:22;;;;;;;11.88;3.42;;;18.90;99.90;;;;;;5050454;28;20516;-36
2023/07/30 07:58:47;;;;;;;10.05;2.38;;;19.00;99.90;;;;;;5049841;28;20040;-35
2023/07/30 08:01:13;;;;;;;8.57;2.10;;;19.10;99.90;;;;;;5052639;28;20035;-34
2023/07/30 08:03:38;;;;;;;12.52;3.17;;;19.20;99.90;;;;;;5052679;28;20531;-35
2023/07/30 08:06:05;;;;;;;13.70;2.95;;;19.20;99.90;;;;;;5049184;28;20025;-36
2023/07/30 08:08:31;;;;;;;11.93;2.97;;;19.10;99.90;;;;;;5049470;28;20029;-40
2023/07/30 08:10:57;;;;;;;13.15;3.13;;;19.00;99.90;;;;;;5049233;28;20043;-37
2023/07/30 08:13:22;;;;;;;10.25;2.25;;;19.10;99.90;;;;;;5052074;28;20457;-36
2023/07/30 08:15:48;;;;;;;10.05;1.90;;;19.10;99.90;;;;;;5049814;28;20017;-36
2023/07/30 08:18:14;;;;;;;14.02;2.40;;;19.20;99.90;;;;;;5051242;28;20032;-34
2023/07/30 08:20:39;;;;;;;19.77;3.20;;;19.20;99.90;;;;;;5049434;28;20401;-33
2023/07/30 08:23:05;;;;;;;12.43;2.25;;;19.30;99.90;;;;;;5052476;28;20398;-35
2023/07/30 08:25:30;;;;;;;8.63;2.13;;;19.40;99.90;;;;;;5051040;28;20047;-36
2023/07/30 08:27:56;;;;;;;9.73;2.05;;;19.40;99.90;;;;;;5051175;28;20029;-35
2023/07/30 08:30:21;;;;;;;9.13;1.85;;;19.40;99.90;;;;;;5048516;28;20104;-37
2023/07/30 08:32:47;;;;;;;7.03;1.70;;;19.40;99.90;;;;;;5038628;28;20469;-35
2023/07/30 08:35:13;;;;;;;10.15;2.10;;;19.60;99.90;;;;;;5050766;28;20033;-34
2023/07/30 08:37:38;;;;;;;8.63;1.80;;;19.90;99.90;;;;;;5052185;28;20013;-35
2023/07/30 08:40:05;;;;;;;5.65;1.63;;;20.20;99.90;;;;;;5049342;28;20032;-50
2023/07/30 08:42:31;;;;;;;8.00;2.38;;;20.70;99.90;;;;;;5048270;28;20079;-50
2023/07/30 08:44:57;;;;;;;9.70;2.10;;;21.10;99.90;;;;;;5050743;28;20056;-48
2023/07/30 08:47:22;;;;;;;11.90;1.83;;;21.30;99.90;;;;;;5049314;28;20076;-51
2023/07/30 08:49:48;;;;;;;9.43;2.55;;;21.20;99.90;;;;;;5042428;28;20036;-53
2023/07/30 08:52:17;;;;;;;9.77;2.40;;;20.90;99.90;;;;;;5050381;28;20053;-45
2023/07/30 08:54:44;;;;;;;5.85;1.75;;;20.60;99.90;;;;;;5049741;28;20349;-49
2023/07/30 08:57:12;;;;;;;7.20;1.60;;;20.50;99.90;;;;;;5050383;28;20509;-35
2023/07/30 08:59:46;;;;;;;8.05;2.55;;;20.30;99.90;;;;;;5050192;28;20409;-33
2023/07/30 09:02:30;;;;;;;6.35;1.92;;;20.10;99.90;;;;;;5051565;28;20031;-52
2023/07/30 09:05:00;;;;;;;13.32;2.05;;;19.90;99.90;;;;;;5036772;28;20483;-49
2023/07/30 09:07:25;;;;;;;7.68;2.05;;;19.80;99.90;;;;;;5052387;28;20470;-50
2023/07/30 09:09:51;;;;;;;13.32;2.17;;;19.80;99.90;;;;;;5055429;28;20035;-50
2023/07/30 09:12:17;;;;;;;5.95;2.28;;;19.70;99.90;;;;;;5057658;28;20060;-50
2023/07/30 09:14:46;;;;;;;13.13;2.38;;;19.50;99.90;;;;;;5048630;28;20128;-50
2023/07/30 09:17:17;;;;;;;8.35;2.50;;;19.20;99.90;;;;;;5044624;28;20544;-36
2023/07/30 09:19:43;;;;;;;10.65;2.70;;;19.10;99.90;;;;;;5050888;28;20449;-36
2023/07/30 09:22:09;;;;;;;10.55;2.20;;;19.10;99.90;;;;;;5051676;28;20025;-36
2023/07/30 09:24:35;;;;;;;13.27;2.38;;;19.20;99.90;;;;;;5052955;28;20029;-34
2023/07/30 09:27:04;;;;;;;13.55;2.38;;;19.30;99.90;;;;;;5055201;28;20024;-36
2023/07/30 09:29:30;;;;;;;7.47;2.03;;;19.50;99.90;;;;;;5055011;28;20028;-36
2023/07/30 09:31:55;;;;;;;14.05;2.22;;;19.60;99.90;;;;;;5052451;28;20741;-33
2023/07/30 09:34:23;;;;;;;13.93;2.05;;;19.70;99.90;;;;;;5053850;28;20383;-37
2023/07/30 09:36:53;;;;;;;7.20;1.65;;;19.70;99.90;;;;;;5050848;28;20021;-36
2023/07/30 09:39:21;;;;;;;7.25;1.98;;;19.70;99.90;;;;;;5052076;28;20095;-37
2023/07/30 09:41:48;;;;;;;5.47;1.40;;;19.90;99.90;;;;;;5051948;28;20025;-34
2023/07/30 09:44:17;;;;;;;9.30;1.90;;;20.40;99.90;;;;;;5052729;28;20033;-38
2023/07/30 09:46:49;;;;;;;11.05;2.40;;;20.90;99.90;;;;;;5053549;28;20079;-35
2023/07/30 09:49:16;;;;;;;4.55;1.20;;;21.40;99.90;;;;;;5037524;28;20026;-40
2023/07/30 09:51:42;;;;;;;5.28;0.90;;;21.70;99.90;;;;;;5034846;28;20045;-34
2023/07/30 09:54:12;;;;;;;9.25;1.75;;;21.80;99.90;;;;;;5043318;28;20358;-35
2023/07/30 09:56:39;;;;;;;5.03;1.60;;;21.80;99.90;;;;;;5072668;28;20063;-35
2023/07/30 09:59:05;;;;;;;;;;;21.50;99.90;;;;;;5053692;28;20025;-34
2023/07/30 10:01:34;;;;;;;3.30;0.98;;;21.20;99.90;;;;;;5061150;28;19915;-36
2023/07/30 10:04:06;;;;;;;5.78;0.88;;;21.40;99.90;;;;;;5054756;28;20033;-44
2023/07/30 10:06:36;;;;;;;6.60;1.55;;;22.00;99.90;;;;;;5055130;28;20103;-38
2023/07/30 10:09:02;;;;;;;8.73;1.33;;;22.00;99.90;;;;;;5062252;28;20036;-35
2023/07/30 10:11:29;;;;;;;9.07;1.77;;;21.80;99.90;;;;;;5074373;28;20055;-36
2023/07/30 10:13:56;;;;;;;8.77;1.02;;;21.50;99.90;;;;;;5072211;28;20032;-35
2023/07/30 10:16:29;;;;;;;3.65;1.27;;;21.40;99.90;;;;;;5071171;28;20461;-36
2023/07/30 10:18:58;;;;;;;8.27;1.58;;;21.50;99.90;;;;;;5073193;28;20086;-36
2023/07/30 10:21:26;;;;;;;8.70;1.10;;;21.50;99.90;;;;;;5074588;28;20025;-36
2023/07/30 10:24:03;;;;;;;4.18;1.30;;;21.40;99.90;;;;;;5071514;28;20009;-36
2023/07/30 10:26:31;;;;;;;3.15;1.58;;;21.20;99.90;;;;;;5074254;28;20392;-36
2023/07/30 10:29:16;;;;;;;6.80;0.80;;;20.90;99.90;;;;;;5064865;28;20020;-34
2023/07/30 10:31:54;;;;;;;1.17;0.60;;;20.90;99.90;;;;;;5070393;28;20023;-35
2023/07/30 10:34:20;;;;;;;2.15;0.88;;;20.80;99.90;;;;;;5074146;28;20519;-36
2023/07/30 10:36:50;;;;;;;6.45;0.77;;;21.10;99.90;;;;;;5051953;28;20014;-35
2023/07/30 10:39:20;;;;;;;7.95;1.20;;;21.30;99.90;;;;;;5074277;28;20107;-36
2023/07/30 10:41:48;;;;;;;3.67;1.00;;;21.70;99.90;;;;;;5072350;28;20362;-36
2023/07/30 10:44:24;;;;;;;9.20;2.00;;;22.20;99.90;;;;;;5069972;28;20131;-35
2023/07/30 10:46:51;;;;;;;4.93;0.95;;;22.60;99.90;;;;;;5074053;28;20033;-35
2023/07/30 10:49:16;;;;;;;5.20;0.90;;;23.10;99.90;;;;;;5059896;28;20111;-37
2023/07/30 10:51:42;;;;;;;2.65;0.88;;;23.10;99.90;;;;;;5060247;28;20123;-35
2023/07/30 10:54:08;;;;;;;2.17;0.88;;;22.90;99.90;;;;;;5073511;28;20124;-37
2023/07/30 10:56:40;;;;;;;2.75;0.95;;;22.60;99.90;;;;;;5073696;28;20025;-35
2023/07/30 10:59:07;;;;;;;3.95;0.90;;;22.50;99.90;;;;;;5071820;28;20427;-35
2023/07/30 11:01:40;;;;;;;10.10;0.70;;;22.10;99.90;;;;;;5059228;28;20060;-34
2023/07/30 11:04:16;;;;;;;3.47;0.90;;;22.00;99.90;;;;;;5053675;28;20384;-35
2023/07/30 11:06:50;;;;;;;5.30;0.93;;;21.80;99.90;;;;;;5052619;28;20021;-35
2023/07/30 11:09:23;;;;;;;8.63;1.20;;;21.60;99.90;;;;;;5059004;28;20033;-36
2023/07/30 11:11:50;;;;;;;6.05;1.52;;;21.60;99.90;;;;;;5073149;28;20020;-35
2023/07/30 11:14:17;;;;;;;4.28;0.70;;;21.40;99.90;;;;;;5070828;28;20351;-37
2023/07/30 11:16:50;;;;;;;4.68;0.77;;;21.30;99.90;;;;;;5068930;28;20520;-36
2023/07/30 11:19:17;;;;;;;4.47;0.80;;;21.40;99.90;;;;;;5073000;28;20035;-37
2023/07/30 11:21:48;;;;;;;2.28;0.75;;;21.20;99.90;;;;;;5072604;28;20020;-37
2023/07/30 11:24:14;;;;;;;5.32;1.00;;;21.10;99.90;;;;;;5032832;28;20109;-34
2023/07/30 11:26:39;;;;;;;5.05;1.30;;;21.10;99.90;;;;;;5045049;28;20025;-37
2023/07/30 11:29:19;;;;;;;6.90;1.00;;;21.00;99.90;;;;;;5060817;28;20074;-33
2023/07/30 11:31:46;;;;;;;5.93;0.82;;;21.10;99.90;;;;;;5071847;28;20028;-42
2023/07/30 11:34:13;;;;;;;3.45;1.00;;;21.50;99.90;;;;;;5061593;28;20576;-39
2023/07/30 11:36:40;;;;;;;3.25;1.40;;;21.50;99.90;;;;;;5052454;28;20504;-34
2023/07/30 11:39:06;;;;;;;4.88;0.80;;;21.80;99.90;;;;;;5048042;28;20028;-37
2023/07/30 11:41:33;;;;;;;4.67;1.00;;;22.00;99.90;;;;;;5043835;28;20388;-42
2023/07/30 11:43:59;;;;;;;0.88;0.47;;;22.10;99.90;;;;;;5052865;28;20029;-35
2023/07/30 11:46:25;;;;;;;1.25;0.47;;;22.00;99.90;;;;;;5052769;28;20064;-44
2023/07/30 11:48:52;;;;;;;9.48;1.50;;;22.00;99.90;;;;;;5034817;28;20033;-36
2023/07/30 11:51:28;;;;;;;;;;;22.00;99.90;;;;;;5051729;28;20077;-35
2023/07/30 11:54:01;;;;;;;4.35;0.60;;;21.90;99.90;;;;;;5046514;28;20388;-36
2023/07/30 11:56:27;;;;;;;8.88;1.45;;;22.00;99.90;;;;;;5041315;28;20128;-35
2023/07/30 11:59:06;;;;;;;1.73;0.90;;;22.20;99.90;;;;;;5048532;28;20059;-37
2023/07/30 12:01:34;;;;;;;5.43;0.93;;;22.40;99.90;;;;;;5032751;28;20079;-35
2023/07/30 12:04:01;;;;;;;3.78;0.68;;;22.50;99.90;;;;;;5032627;28;20022;-34
2023/07/30 12:06:47;;;;;;;2.95;0.50;;;22.70;99.90;;;;;;5033013;28;20029;-34
2023/07/30 12:09:22;;;;;;;2.25;1.00;;;22.80;99.90;;;;;;5033394;28;20030;-35
2023/07/30 12:11:56;;;;;;;5.95;0.50;;;23.10;99.90;;;;;;5050061;28;20728;-36
2023/07/30 12:14:30;;;;;;;2.10;0.93;;;23.10;99.90;;;;;;5050480;28;20132;-34
2023/07/30 12:17:00;;;;;;;1.63;0.80;;;23.00;99.90;;;;;;5052482;28;20044;-37
2023/07/30 12:19:25;;;;;;;2.42;0.77;;;23.00;99.90;;;;;;5050789;28;20029;-36
2023/07/30 12:21:51;;;;;;;4.03;0.60;;;22.90;99.90;;;;;;5046950;28;20433;-34
2023/07/30 12:24:17;;;;;;;6.80;0.52;;;22.90;99.90;;;;;;5049023;28;20021;-35
2023/07/30 12:26:42;;;;;;;3.17;0.65;;;23.00;99.90;;;;;;5052339;28;20078;-35
2023/07/30 12:29:08;;;;;;;4.38;0.60;;;22.80;99.90;;;;;;5051933;28;20528;-35
2023/07/30 12:31:34;;;;;;;3.88;0.63;;;22.60;99.90;;;;;;5049791;28;20382;-36
2023/07/30 12:33:59;;;;;;;2.53;0.88;;;22.50;99.90;;;;;;5047680;28;20131;-37
2023/07/30 12:36:25;;;;;;;3.42;0.65;;;22.60;99.90;;;;;;5050998;28;20074;-37
2023/07/30 12:38:53;;;;;;;3.60;0.93;;;22.80;99.90;;;;;;5050716;28;20336;-36
2023/07/30 12:41:25;;;;;;;2.08;0.50;;;23.10;99.90;;;;;;5046958;28;20029;-35